sensor_id;sensor_type;location;lat;lon;timestamp;P1;durP1;ratioP1;P2;durP2;ratioP2
20772;SDS011;10546;50.674;4.616;2023-04-24T00:02:03;27.73;;;14.30;;
20772;SDS011;10546;50.674;4.616;2023-04-24T00:04:31;29.73;;;14.47;;
20772;SDS011;10546;50.674;4.616;2023-04-24T00:06:57;26.70;;;13.93;;
20772;SDS011;10546;50.674;4.616;2023-04-24T00:09:24;26.37;;;13.97;;
20772;SDS011;10546;50.674;4.616;2023-04-24T00:11:51;29.17;;;13.37;;
20772;SDS011;10546;50.674;4.616;2023-04-24T00:14:17;24.97;;;13.40;;
20772;SDS011;10546;50.674;4.616;2023-04-24T00:16:42;27.23;;;14.03;;
20772;SDS011;10546;50.674;4.616;2023-04-24T00:19:08;27.83;;;14.40;;
20772;SDS011;10546;50.674;4.616;2023-04-24T00:21:34;24.03;;;12.40;;
20772;SDS011;10546;50.674;4.616;2023-04-24T00:24:00;28.63;;;12.47;;
20772;SDS011;10546;50.674;4.616;2023-04-24T00:26:25;29.73;;;13.30;;
20772;SDS011;10546;50.674;4.616;2023-04-24T00:28:51;29.23;;;13.97;;
20772;SDS011;10546;50.674;4.616;2023-04-24T00:31:16;27.77;;;13.70;;
20772;SDS011;10546;50.674;4.616;2023-04-24T00:33:42;29.53;;;13.47;;
20772;SDS011;10546;50.674;4.616;2023-04-24T00:36:08;30.60;;;14.20;;
20772;SDS011;10546;50.674;4.616;2023-04-24T00:38:34;29.57;;;13.70;;
20772;SDS011;10546;50.674;4.616;2023-04-24T00:40:59;26.40;;;12.33;;
20772;SDS011;10546;50.674;4.616;2023-04-24T00:43:25;24.80;;;12.77;;
20772;SDS011;10546;50.674;4.616;2023-04-24T00:45:50;31.50;;;14.47;;
20772;SDS011;10546;50.674;4.616;2023-04-24T00:48:16;26.93;;;12.90;;
20772;SDS011;10546;50.674;4.616;2023-04-24T00:50:42;26.57;;;12.53;;
20772;SDS011;10546;50.674;4.616;2023-04-24T00:53:08;24.43;;;12.53;;
20772;SDS011;10546;50.674;4.616;2023-04-24T00:55:34;24.70;;;13.30;;
20772;SDS011;10546;50.674;4.616;2023-04-24T00:58:02;25.47;;;13.63;;
20772;SDS011;10546;50.674;4.616;2023-04-24T01:00:27;23.13;;;11.83;;
20772;SDS011;10546;50.674;4.616;2023-04-24T01:02:55;21.23;;;12.63;;
20772;SDS011;10546;50.674;4.616;2023-04-24T01:05:22;25.77;;;13.43;;
20772;SDS011;10546;50.674;4.616;2023-04-24T01:07:47;29.50;;;13.33;;
20772;SDS011;10546;50.674;4.616;2023-04-24T01:10:14;28.90;;;13.43;;
20772;SDS011;10546;50.674;4.616;2023-04-24T01:12:43;33.13;;;14.57;;
20772;SDS011;10546;50.674;4.616;2023-04-24T01:15:09;25.47;;;11.47;;
20772;SDS011;10546;50.674;4.616;2023-04-24T01:17:35;23.37;;;12.70;;
20772;SDS011;10546;50.674;4.616;2023-04-24T01:20:01;21.37;;;12.33;;
20772;SDS011;10546;50.674;4.616;2023-04-24T01:22:30;27.47;;;13.60;;
20772;SDS011;10546;50.674;4.616;2023-04-24T01:24:58;21.67;;;12.57;;
20772;SDS011;10546;50.674;4.616;2023-04-24T01:27:23;18.33;;;11.23;;
20772;SDS011;10546;50.674;4.616;2023-04-24T01:29:49;27.23;;;14.07;;
20772;SDS011;10546;50.674;4.616;2023-04-24T01:32:16;27.23;;;14.17;;
20772;SDS011;10546;50.674;4.616;2023-04-24T01:34:43;24.57;;;13.73;;
20772;SDS011;10546;50.674;4.616;2023-04-24T01:37:10;25.37;;;14.20;;
20772;SDS011;10546;50.674;4.616;2023-04-24T01:39:35;25.77;;;13.40;;
20772;SDS011;10546;50.674;4.616;2023-04-24T01:42:01;25.73;;;13.40;;
20772;SDS011;10546;50.674;4.616;2023-04-24T01:44:27;27.33;;;14.70;;
20772;SDS011;10546;50.674;4.616;2023-04-24T01:46:54;29.20;;;15.00;;
20772;SDS011;10546;50.674;4.616;2023-04-24T01:49:20;26.40;;;13.90;;
20772;SDS011;10546;50.674;4.616;2023-04-24T01:51:46;27.47;;;14.30;;
20772;SDS011;10546;50.674;4.616;2023-04-24T01:54:12;27.23;;;13.37;;
20772;SDS011;10546;50.674;4.616;2023-04-24T01:56:40;27.57;;;13.47;;
20772;SDS011;10546;50.674;4.616;2023-04-24T01:59:10;26.50;;;14.00;;
20772;SDS011;10546;50.674;4.616;2023-04-24T02:01:37;29.43;;;13.97;;
20772;SDS011;10546;50.674;4.616;2023-04-24T02:04:03;29.93;;;15.70;;
20772;SDS011;10546;50.674;4.616;2023-04-24T02:06:30;31.63;;;16.40;;
20772;SDS011;10546;50.674;4.616;2023-04-24T02:08:59;32.87;;;16.23;;
20772;SDS011;10546;50.674;4.616;2023-04-24T02:11:25;26.23;;;12.73;;
20772;SDS011;10546;50.674;4.616;2023-04-24T02:13:51;29.67;;;16.00;;
20772;SDS011;10546;50.674;4.616;2023-04-24T02:16:17;34.30;;;15.37;;
20772;SDS011;10546;50.674;4.616;2023-04-24T02:18:43;35.20;;;15.47;;
20772;SDS011;10546;50.674;4.616;2023-04-24T02:21:09;29.97;;;14.20;;
20772;SDS011;10546;50.674;4.616;2023-04-24T02:23:35;28.57;;;15.30;;
20772;SDS011;10546;50.674;4.616;2023-04-24T05:28:10;25.53;;;11.83;;
20772;SDS011;10546;50.674;4.616;2023-04-24T05:30:36;27.47;;;12.70;;
20772;SDS011;10546;50.674;4.616;2023-04-24T05:33:01;24.97;;;12.30;;
20772;SDS011;10546;50.674;4.616;2023-04-24T05:35:27;22.63;;;12.53;;
20772;SDS011;10546;50.674;4.616;2023-04-24T05:37:53;23.63;;;12.80;;
20772;SDS011;10546;50.674;4.616;2023-04-24T05:40:19;23.27;;;12.80;;
20772;SDS011;10546;50.674;4.616;2023-04-24T05:42:44;29.30;;;15.90;;
20772;SDS011;10546;50.674;4.616;2023-04-24T05:45:10;25.27;;;13.87;;
20772;SDS011;10546;50.674;4.616;2023-04-24T05:47:41;26.63;;;14.03;;
20772;SDS011;10546;50.674;4.616;2023-04-24T05:50:08;23.47;;;12.83;;
20772;SDS011;10546;50.674;4.616;2023-04-24T05:52:34;29.70;;;13.50;;
20772;SDS011;10546;50.674;4.616;2023-04-24T05:55:00;37.40;;;15.97;;
20772;SDS011;10546;50.674;4.616;2023-04-24T05:57:26;32.77;;;14.90;;
20772;SDS011;10546;50.674;4.616;2023-04-24T05:59:51;35.57;;;15.30;;
20772;SDS011;10546;50.674;4.616;2023-04-24T06:02:17;31.07;;;15.13;;
20772;SDS011;10546;50.674;4.616;2023-04-24T06:04:43;28.77;;;14.33;;
20772;SDS011;10546;50.674;4.616;2023-04-24T06:07:10;28.07;;;14.37;;
20772;SDS011;10546;50.674;4.616;2023-04-24T06:09:36;26.70;;;14.33;;
20772;SDS011;10546;50.674;4.616;2023-04-24T06:12:02;31.47;;;14.53;;
20772;SDS011;10546;50.674;4.616;2023-04-24T06:14:27;28.43;;;13.97;;
20772;SDS011;10546;50.674;4.616;2023-04-24T06:16:53;29.40;;;14.77;;
20772;SDS011;10546;50.674;4.616;2023-04-24T06:19:19;29.30;;;14.13;;
20772;SDS011;10546;50.674;4.616;2023-04-24T06:21:45;30.77;;;14.73;;
20772;SDS011;10546;50.674;4.616;2023-04-24T06:24:13;29.10;;;14.47;;
20772;SDS011;10546;50.674;4.616;2023-04-24T06:26:39;38.07;;;14.50;;
20772;SDS011;10546;50.674;4.616;2023-04-24T06:29:05;33.70;;;15.00;;
20772;SDS011;10546;50.674;4.616;2023-04-24T06:31:32;33.20;;;15.30;;
20772;SDS011;10546;50.674;4.616;2023-04-24T06:34:02;33.70;;;15.07;;
20772;SDS011;10546;50.674;4.616;2023-04-24T06:36:28;35.53;;;14.73;;
20772;SDS011;10546;50.674;4.616;2023-04-24T06:38:55;31.47;;;14.23;;
20772;SDS011;10546;50.674;4.616;2023-04-24T06:41:22;31.40;;;16.80;;
20772;SDS011;10546;50.674;4.616;2023-04-24T06:43:47;29.57;;;14.83;;
20772;SDS011;10546;50.674;4.616;2023-04-24T06:46:13;31.00;;;16.43;;
20772;SDS011;10546;50.674;4.616;2023-04-24T06:48:39;36.90;;;16.90;;
20772;SDS011;10546;50.674;4.616;2023-04-24T06:51:05;35.93;;;16.50;;
20772;SDS011;10546;50.674;4.616;2023-04-24T06:53:30;33.93;;;17.20;;
20772;SDS011;10546;50.674;4.616;2023-04-24T06:55:56;36.03;;;18.23;;
20772;SDS011;10546;50.674;4.616;2023-04-24T06:58:22;35.97;;;18.93;;
20772;SDS011;10546;50.674;4.616;2023-04-24T07:00:50;40.87;;;19.43;;
20772;SDS011;10546;50.674;4.616;2023-04-24T07:03:16;37.37;;;18.40;;
20772;SDS011;10546;50.674;4.616;2023-04-24T07:05:41;45.73;;;20.23;;
20772;SDS011;10546;50.674;4.616;2023-04-24T07:08:07;46.27;;;19.50;;
20772;SDS011;10546;50.674;4.616;2023-04-24T07:10:36;39.80;;;18.90;;
20772;SDS011;10546;50.674;4.616;2023-04-24T07:13:01;39.43;;;20.43;;
20772;SDS011;10546;50.674;4.616;2023-04-24T07:15:27;44.67;;;21.13;;
20772;SDS011;10546;50.674;4.616;2023-04-24T07:17:53;41.30;;;20.10;;
20772;SDS011;10546;50.674;4.616;2023-04-24T07:20:18;42.60;;;20.27;;
20772;SDS011;10546;50.674;4.616;2023-04-24T07:22:44;41.33;;;19.87;;
20772;SDS011;10546;50.674;4.616;2023-04-24T07:25:10;38.43;;;20.80;;
20772;SDS011;10546;50.674;4.616;2023-04-24T07:27:36;42.87;;;19.90;;
20772;SDS011;10546;50.674;4.616;2023-04-24T07:30:03;39.97;;;20.20;;
20772;SDS011;10546;50.674;4.616;2023-04-24T07:32:29;34.97;;;19.07;;
20772;SDS011;10546;50.674;4.616;2023-04-24T07:34:55;39.43;;;18.97;;
20772;SDS011;10546;50.674;4.616;2023-04-24T07:37:21;34.67;;;18.53;;
20772;SDS011;10546;50.674;4.616;2023-04-24T07:39:47;35.40;;;17.77;;
20772;SDS011;10546;50.674;4.616;2023-04-24T07:42:13;33.30;;;17.20;;
20772;SDS011;10546;50.674;4.616;2023-04-24T07:44:38;33.77;;;18.50;;
20772;SDS011;10546;50.674;4.616;2023-04-24T07:47:04;30.57;;;16.50;;
20772;SDS011;10546;50.674;4.616;2023-04-24T07:49:30;35.90;;;18.73;;
20772;SDS011;10546;50.674;4.616;2023-04-24T07:51:56;27.17;;;15.93;;
20772;SDS011;10546;50.674;4.616;2023-04-24T07:54:21;35.13;;;17.17;;
20772;SDS011;10546;50.674;4.616;2023-04-24T07:56:47;33.13;;;16.10;;
20772;SDS011;10546;50.674;4.616;2023-04-24T07:59:13;31.53;;;16.87;;
20772;SDS011;10546;50.674;4.616;2023-04-24T08:01:39;34.97;;;17.50;;
20772;SDS011;10546;50.674;4.616;2023-04-24T08:04:05;38.20;;;17.27;;
20772;SDS011;10546;50.674;4.616;2023-04-24T08:06:30;34.27;;;17.17;;
20772;SDS011;10546;50.674;4.616;2023-04-24T08:08:57;32.27;;;16.03;;
20772;SDS011;10546;50.674;4.616;2023-04-24T08:11:23;41.50;;;18.43;;
20772;SDS011;10546;50.674;4.616;2023-04-24T08:13:49;33.47;;;17.70;;
20772;SDS011;10546;50.674;4.616;2023-04-24T08:16:15;31.00;;;16.80;;
20772;SDS011;10546;50.674;4.616;2023-04-24T08:18:41;31.20;;;15.40;;
20772;SDS011;10546;50.674;4.616;2023-04-24T08:21:07;25.50;;;14.30;;
20772;SDS011;10546;50.674;4.616;2023-04-24T08:23:32;30.70;;;14.37;;
20772;SDS011;10546;50.674;4.616;2023-04-24T08:25:58;27.40;;;14.67;;
20772;SDS011;10546;50.674;4.616;2023-04-24T08:28:24;29.37;;;14.63;;
20772;SDS011;10546;50.674;4.616;2023-04-24T08:30:50;29.57;;;14.10;;
20772;SDS011;10546;50.674;4.616;2023-04-24T08:33:20;23.27;;;13.60;;
20772;SDS011;10546;50.674;4.616;2023-04-24T08:35:47;30.00;;;14.23;;
20772;SDS011;10546;50.674;4.616;2023-04-24T08:38:13;29.93;;;14.97;;
20772;SDS011;10546;50.674;4.616;2023-04-24T08:40:38;25.23;;;12.70;;
20772;SDS011;10546;50.674;4.616;2023-04-24T08:43:04;28.17;;;13.93;;
20772;SDS011;10546;50.674;4.616;2023-04-24T08:45:30;27.37;;;12.60;;
20772;SDS011;10546;50.674;4.616;2023-04-24T08:47:58;23.67;;;11.53;;
20772;SDS011;10546;50.674;4.616;2023-04-24T08:50:24;18.77;;;9.47;;
20772;SDS011;10546;50.674;4.616;2023-04-24T08:52:52;16.03;;;9.90;;
20772;SDS011;10546;50.674;4.616;2023-04-24T08:55:19;25.33;;;10.70;;
20772;SDS011;10546;50.674;4.616;2023-04-24T08:57:46;23.47;;;10.00;;
20772;SDS011;10546;50.674;4.616;2023-04-24T09:00:16;19.77;;;9.60;;
20772;SDS011;10546;50.674;4.616;2023-04-24T09:02:43;19.30;;;8.93;;
20772;SDS011;10546;50.674;4.616;2023-04-24T09:05:10;19.20;;;9.32;;
20772;SDS011;10546;50.674;4.616;2023-04-24T09:07:37;18.92;;;8.95;;
20772;SDS011;10546;50.674;4.616;2023-04-24T09:10:07;15.25;;;8.20;;
20772;SDS011;10546;50.674;4.616;2023-04-24T09:12:34;18.40;;;7.65;;
20772;SDS011;10546;50.674;4.616;2023-04-24T09:15:00;13.23;;;7.72;;
20772;SDS011;10546;50.674;4.616;2023-04-24T09:17:28;18.83;;;8.40;;
20772;SDS011;10546;50.674;4.616;2023-04-24T09:19:55;18.03;;;8.40;;
20772;SDS011;10546;50.674;4.616;2023-04-24T09:22:20;17.50;;;7.97;;
20772;SDS011;10546;50.674;4.616;2023-04-24T09:24:46;19.87;;;7.17;;
20772;SDS011;10546;50.674;4.616;2023-04-24T09:27:13;16.98;;;6.35;;
20772;SDS011;10546;50.674;4.616;2023-04-24T09:30:02;9.75;;;5.65;;
20772;SDS011;10546;50.674;4.616;2023-04-24T09:32:28;13.05;;;5.40;;
20772;SDS011;10546;50.674;4.616;2023-04-24T09:35:05;12.05;;;5.38;;
20772;SDS011;10546;50.674;4.616;2023-04-24T09:37:39;13.90;;;6.25;;
20772;SDS011;10546;50.674;4.616;2023-04-24T09:40:14;15.57;;;5.83;;
20772;SDS011;10546;50.674;4.616;2023-04-24T09:42:45;12.50;;;6.10;;
20772;SDS011;10546;50.674;4.616;2023-04-24T09:45:16;10.93;;;6.33;;
20772;SDS011;10546;50.674;4.616;2023-04-24T09:47:42;12.60;;;5.70;;
20772;SDS011;10546;50.674;4.616;2023-04-24T09:50:09;12.13;;;5.97;;
20772;SDS011;10546;50.674;4.616;2023-04-24T09:52:37;9.07;;;5.93;;
20772;SDS011;10546;50.674;4.616;2023-04-24T09:55:10;15.03;;;6.07;;
20772;SDS011;10546;50.674;4.616;2023-04-24T09:57:46;13.48;;;6.20;;
20772;SDS011;10546;50.674;4.616;2023-04-24T10:03:03;11.80;;;5.73;;
20772;SDS011;10546;50.674;4.616;2023-04-24T10:08:07;8.37;;;4.80;;
20772;SDS011;10546;50.674;4.616;2023-04-24T10:10:37;8.20;;;4.95;;
20772;SDS011;10546;50.674;4.616;2023-04-24T10:13:05;7.60;;;3.97;;
20772;SDS011;10546;50.674;4.616;2023-04-24T10:15:34;8.48;;;3.80;;
20772;SDS011;10546;50.674;4.616;2023-04-24T10:18:00;10.52;;;3.72;;
20772;SDS011;10546;50.674;4.616;2023-04-24T10:20:27;9.38;;;3.78;;
20772;SDS011;10546;50.674;4.616;2023-04-24T10:22:55;7.30;;;3.72;;
20772;SDS011;10546;50.674;4.616;2023-04-24T10:25:29;10.82;;;4.25;;
20772;SDS011;10546;50.674;4.616;2023-04-24T10:27:56;7.90;;;3.85;;
20772;SDS011;10546;50.674;4.616;2023-04-24T10:30:24;10.45;;;3.70;;
20772;SDS011;10546;50.674;4.616;2023-04-24T10:32:51;6.75;;;3.83;;
20772;SDS011;10546;50.674;4.616;2023-04-24T10:35:17;10.35;;;3.97;;
20772;SDS011;10546;50.674;4.616;2023-04-24T10:37:50;9.53;;;4.60;;
20772;SDS011;10546;50.674;4.616;2023-04-24T10:40:29;7.15;;;4.22;;
20772;SDS011;10546;50.674;4.616;2023-04-24T10:42:57;7.90;;;4.53;;
20772;SDS011;10546;50.674;4.616;2023-04-24T10:45:23;8.90;;;4.57;;
20772;SDS011;10546;50.674;4.616;2023-04-24T10:47:53;15.55;;;4.93;;
20772;SDS011;10546;50.674;4.616;2023-04-24T10:50:19;7.97;;;4.35;;
20772;SDS011;10546;50.674;4.616;2023-04-24T10:52:45;9.60;;;5.10;;
20772;SDS011;10546;50.674;4.616;2023-04-24T10:58:15;9.35;;;4.72;;
20772;SDS011;10546;50.674;4.616;2023-04-24T11:00:42;12.00;;;5.60;;
20772;SDS011;10546;50.674;4.616;2023-04-24T11:03:24;11.45;;;4.45;;
20772;SDS011;10546;50.674;4.616;2023-04-24T11:05:55;13.30;;;5.20;;
20772;SDS011;10546;50.674;4.616;2023-04-24T11:10:58;8.20;;;5.23;;
20772;SDS011;10546;50.674;4.616;2023-04-24T11:16:20;13.27;;;5.90;;
20772;SDS011;10546;50.674;4.616;2023-04-24T11:18:50;16.00;;;8.40;;
20772;SDS011;10546;50.674;4.616;2023-04-24T11:21:40;17.83;;;9.17;;
20772;SDS011;10546;50.674;4.616;2023-04-24T11:26:55;16.90;;;8.50;;
20772;SDS011;10546;50.674;4.616;2023-04-24T11:32:24;15.20;;;8.13;;
20772;SDS011;10546;50.674;4.616;2023-04-24T11:34:51;17.60;;;8.20;;
20772;SDS011;10546;50.674;4.616;2023-04-24T11:37:18;16.43;;;9.23;;
20772;SDS011;10546;50.674;4.616;2023-04-24T11:39:44;16.63;;;8.80;;
20772;SDS011;10546;50.674;4.616;2023-04-24T11:42:09;15.67;;;9.90;;
20772;SDS011;10546;50.674;4.616;2023-04-24T11:44:35;16.27;;;9.67;;
20772;SDS011;10546;50.674;4.616;2023-04-24T11:47:05;17.47;;;10.17;;
20772;SDS011;10546;50.674;4.616;2023-04-24T11:49:32;19.80;;;10.63;;
20772;SDS011;10546;50.674;4.616;2023-04-24T11:51:57;19.67;;;11.47;;
20772;SDS011;10546;50.674;4.616;2023-04-24T11:54:25;19.40;;;11.77;;
20772;SDS011;10546;50.674;4.616;2023-04-24T11:56:51;17.60;;;11.77;;
20772;SDS011;10546;50.674;4.616;2023-04-24T11:59:17;19.37;;;11.47;;
20772;SDS011;10546;50.674;4.616;2023-04-24T12:01:46;19.40;;;11.87;;
20772;SDS011;10546;50.674;4.616;2023-04-24T12:04:13;24.87;;;10.77;;
20772;SDS011;10546;50.674;4.616;2023-04-24T12:06:39;21.13;;;10.67;;
20772;SDS011;10546;50.674;4.616;2023-04-24T12:09:05;21.23;;;10.10;;
20772;SDS011;10546;50.674;4.616;2023-04-24T12:11:31;19.33;;;9.57;;
20772;SDS011;10546;50.674;4.616;2023-04-24T12:13:57;17.30;;;9.35;;
20772;SDS011;10546;50.674;4.616;2023-04-24T12:16:23;13.38;;;9.10;;
20772;SDS011;10546;50.674;4.616;2023-04-24T12:18:51;15.07;;;9.05;;
20772;SDS011;10546;50.674;4.616;2023-04-24T12:21:18;18.20;;;10.18;;
20772;SDS011;10546;50.674;4.616;2023-04-24T12:23:45;16.67;;;10.02;;
20772;SDS011;10546;50.674;4.616;2023-04-24T12:26:12;21.95;;;9.82;;
20772;SDS011;10546;50.674;4.616;2023-04-24T12:28:45;13.80;;;8.68;;
20772;SDS011;10546;50.674;4.616;2023-04-24T12:31:16;17.58;;;9.68;;
20772;SDS011;10546;50.674;4.616;2023-04-24T12:33:42;16.58;;;8.73;;
20772;SDS011;10546;50.674;4.616;2023-04-24T12:36:11;12.10;;;8.77;;
20772;SDS011;10546;50.674;4.616;2023-04-24T12:38:38;13.50;;;8.73;;
20772;SDS011;10546;50.674;4.616;2023-04-24T12:41:09;12.88;;;8.75;;
20772;SDS011;10546;50.674;4.616;2023-04-24T12:43:37;12.93;;;8.90;;
20772;SDS011;10546;50.674;4.616;2023-04-24T12:46:03;11.55;;;8.20;;
20772;SDS011;10546;50.674;4.616;2023-04-24T12:48:30;11.35;;;8.18;;
20772;SDS011;10546;50.674;4.616;2023-04-24T12:50:59;14.50;;;8.60;;
20772;SDS011;10546;50.674;4.616;2023-04-24T12:53:28;12.50;;;7.85;;
20772;SDS011;10546;50.674;4.616;2023-04-24T12:55:56;14.40;;;7.65;;
20772;SDS011;10546;50.674;4.616;2023-04-24T12:58:22;10.63;;;7.72;;
20772;SDS011;10546;50.674;4.616;2023-04-24T13:00:48;11.98;;;8.18;;
20772;SDS011;10546;50.674;4.616;2023-04-24T13:03:14;12.85;;;8.10;;
20772;SDS011;10546;50.674;4.616;2023-04-24T13:05:40;14.40;;;7.20;;
20772;SDS011;10546;50.674;4.616;2023-04-24T13:08:07;13.23;;;7.72;;
20772;SDS011;10546;50.674;4.616;2023-04-24T13:10:32;10.80;;;7.53;;
20772;SDS011;10546;50.674;4.616;2023-04-24T13:12:59;11.32;;;7.32;;
20772;SDS011;10546;50.674;4.616;2023-04-24T13:15:25;13.85;;;7.63;;
20772;SDS011;10546;50.674;4.616;2023-04-24T13:17:50;11.48;;;7.35;;
20772;SDS011;10546;50.674;4.616;2023-04-24T13:20:16;13.13;;;8.05;;
20772;SDS011;10546;50.674;4.616;2023-04-24T13:22:43;11.55;;;8.00;;
20772;SDS011;10546;50.674;4.616;2023-04-24T13:25:08;13.13;;;8.07;;
20772;SDS011;10546;50.674;4.616;2023-04-24T13:27:35;11.77;;;7.27;;
20772;SDS011;10546;50.674;4.616;2023-04-24T13:30:03;14.83;;;8.53;;
20772;SDS011;10546;50.674;4.616;2023-04-24T13:32:28;12.60;;;7.70;;
20772;SDS011;10546;50.674;4.616;2023-04-24T13:34:54;15.13;;;8.37;;
20772;SDS011;10546;50.674;4.616;2023-04-24T13:37:21;10.87;;;7.80;;
20772;SDS011;10546;50.674;4.616;2023-04-24T13:39:47;18.33;;;8.90;;
20772;SDS011;10546;50.674;4.616;2023-04-24T13:42:13;13.43;;;8.47;;
20772;SDS011;10546;50.674;4.616;2023-04-24T13:44:39;17.57;;;9.47;;
20772;SDS011;10546;50.674;4.616;2023-04-24T13:47:05;13.27;;;8.33;;
20772;SDS011;10546;50.674;4.616;2023-04-24T13:49:31;13.80;;;8.20;;
20772;SDS011;10546;50.674;4.616;2023-04-24T13:51:56;18.00;;;9.57;;
20772;SDS011;10546;50.674;4.616;2023-04-24T13:54:22;14.43;;;8.87;;
20772;SDS011;10546;50.674;4.616;2023-04-24T13:56:50;16.87;;;9.33;;
20772;SDS011;10546;50.674;4.616;2023-04-24T13:59:16;17.67;;;9.00;;
20772;SDS011;10546;50.674;4.616;2023-04-24T14:01:42;14.07;;;8.23;;
20772;SDS011;10546;50.674;4.616;2023-04-24T14:04:09;13.73;;;8.43;;
20772;SDS011;10546;50.674;4.616;2023-04-24T14:06:36;17.17;;;8.80;;
20772;SDS011;10546;50.674;4.616;2023-04-24T14:09:01;19.33;;;9.40;;
20772;SDS011;10546;50.674;4.616;2023-04-24T14:11:27;18.70;;;9.93;;
20772;SDS011;10546;50.674;4.616;2023-04-24T14:13:54;18.00;;;10.00;;
20772;SDS011;10546;50.674;4.616;2023-04-24T14:16:21;17.73;;;10.47;;
20772;SDS011;10546;50.674;4.616;2023-04-24T14:18:47;16.30;;;10.57;;
20772;SDS011;10546;50.674;4.616;2023-04-24T14:21:12;17.30;;;11.30;;
20772;SDS011;10546;50.674;4.616;2023-04-24T14:23:38;17.87;;;10.80;;
20772;SDS011;10546;50.674;4.616;2023-04-24T14:26:04;19.33;;;11.00;;
20772;SDS011;10546;50.674;4.616;2023-04-24T14:28:29;22.63;;;11.80;;
20772;SDS011;10546;50.674;4.616;2023-04-24T14:30:55;16.30;;;10.90;;
20772;SDS011;10546;50.674;4.616;2023-04-24T14:33:21;17.40;;;11.07;;
20772;SDS011;10546;50.674;4.616;2023-04-24T14:35:46;21.67;;;13.37;;
20772;SDS011;10546;50.674;4.616;2023-04-24T14:38:12;22.03;;;12.30;;
20772;SDS011;10546;50.674;4.616;2023-04-24T14:40:38;24.70;;;13.53;;
20772;SDS011;10546;50.674;4.616;2023-04-24T14:43:05;27.60;;;14.47;;
20772;SDS011;10546;50.674;4.616;2023-04-24T14:45:32;24.97;;;14.67;;
20772;SDS011;10546;50.674;4.616;2023-04-24T14:47:57;26.33;;;14.63;;
20772;SDS011;10546;50.674;4.616;2023-04-24T14:50:23;23.43;;;14.53;;
20772;SDS011;10546;50.674;4.616;2023-04-24T14:52:52;25.63;;;14.97;;
20772;SDS011;10546;50.674;4.616;2023-04-24T14:55:19;30.63;;;16.43;;
20772;SDS011;10546;50.674;4.616;2023-04-24T14:57:45;25.77;;;15.77;;
20772;SDS011;10546;50.674;4.616;2023-04-24T15:00:10;25.37;;;14.93;;
20772;SDS011;10546;50.674;4.616;2023-04-24T15:02:37;27.00;;;16.00;;
20772;SDS011;10546;50.674;4.616;2023-04-24T15:05:06;26.40;;;16.40;;
20772;SDS011;10546;50.674;4.616;2023-04-24T15:07:33;30.07;;;16.20;;
20772;SDS011;10546;50.674;4.616;2023-04-24T15:10:00;31.17;;;16.27;;
20772;SDS011;10546;50.674;4.616;2023-04-24T15:12:26;29.87;;;16.13;;
20772;SDS011;10546;50.674;4.616;2023-04-24T15:14:53;27.33;;;14.97;;
20772;SDS011;10546;50.674;4.616;2023-04-24T15:17:19;21.83;;;14.13;;
20772;SDS011;10546;50.674;4.616;2023-04-24T15:19:45;29.20;;;15.17;;
20772;SDS011;10546;50.674;4.616;2023-04-24T15:22:10;21.02;;;12.13;;
20772;SDS011;10546;50.674;4.616;2023-04-24T15:24:36;20.50;;;11.95;;
20772;SDS011;10546;50.674;4.616;2023-04-24T15:27:02;17.17;;;11.83;;
20772;SDS011;10546;50.674;4.616;2023-04-24T15:29:28;19.17;;;10.63;;
20772;SDS011;10546;50.674;4.616;2023-04-24T15:31:54;17.73;;;11.33;;
20772;SDS011;10546;50.674;4.616;2023-04-24T15:34:20;17.47;;;10.00;;
20772;SDS011;10546;50.674;4.616;2023-04-24T15:36:45;13.53;;;8.17;;
20772;SDS011;10546;50.674;4.616;2023-04-24T15:39:11;10.57;;;5.83;;
20772;SDS011;10546;50.674;4.616;2023-04-24T15:41:37;7.40;;;5.10;;
20772;SDS011;10546;50.674;4.616;2023-04-24T15:44:02;8.50;;;4.30;;
20772;SDS011;10546;50.674;4.616;2023-04-24T15:46:28;5.93;;;3.57;;
20772;SDS011;10546;50.674;4.616;2023-04-24T15:48:54;5.83;;;3.70;;
20772;SDS011;10546;50.674;4.616;2023-04-24T15:51:20;6.27;;;3.03;;
20772;SDS011;10546;50.674;4.616;2023-04-24T15:53:45;7.33;;;3.60;;
20772;SDS011;10546;50.674;4.616;2023-04-24T15:56:11;7.87;;;3.73;;
20772;SDS011;10546;50.674;4.616;2023-04-24T15:58:37;8.33;;;3.67;;
20772;SDS011;10546;50.674;4.616;2023-04-24T16:01:03;6.27;;;3.50;;
20772;SDS011;10546;50.674;4.616;2023-04-24T16:03:29;5.03;;;3.10;;
20772;SDS011;10546;50.674;4.616;2023-04-24T16:05:55;10.07;;;3.30;;
20772;SDS011;10546;50.674;4.616;2023-04-24T16:08:20;6.90;;;3.33;;
20772;SDS011;10546;50.674;4.616;2023-04-24T16:10:46;8.47;;;4.30;;
20772;SDS011;10546;50.674;4.616;2023-04-24T16:13:12;7.97;;;4.30;;
20772;SDS011;10546;50.674;4.616;2023-04-24T16:15:39;7.17;;;3.60;;
20772;SDS011;10546;50.674;4.616;2023-04-24T16:18:05;5.70;;;3.80;;
20772;SDS011;10546;50.674;4.616;2023-04-24T16:20:31;6.87;;;3.47;;
20772;SDS011;10546;50.674;4.616;2023-04-24T16:22:57;5.43;;;3.00;;
20772;SDS011;10546;50.674;4.616;2023-04-24T16:25:22;8.50;;;3.70;;
20772;SDS011;10546;50.674;4.616;2023-04-24T16:27:49;3.83;;;2.97;;
20772;SDS011;10546;50.674;4.616;2023-04-24T16:30:16;5.23;;;3.27;;
20772;SDS011;10546;50.674;4.616;2023-04-24T16:32:43;5.33;;;3.10;;
20772;SDS011;10546;50.674;4.616;2023-04-24T16:35:08;5.63;;;3.53;;
20772;SDS011;10546;50.674;4.616;2023-04-24T16:37:34;4.53;;;2.93;;
20772;SDS011;10546;50.674;4.616;2023-04-24T16:40:00;5.27;;;3.00;;
20772;SDS011;10546;50.674;4.616;2023-04-24T16:42:25;6.20;;;3.40;;
20772;SDS011;10546;50.674;4.616;2023-04-24T16:44:51;6.83;;;3.10;;
20772;SDS011;10546;50.674;4.616;2023-04-24T16:47:17;4.57;;;2.70;;
20772;SDS011;10546;50.674;4.616;2023-04-24T16:49:43;6.23;;;2.87;;
20772;SDS011;10546;50.674;4.616;2023-04-24T16:52:09;5.60;;;2.73;;
20772;SDS011;10546;50.674;4.616;2023-04-24T16:54:35;5.53;;;2.80;;
20772;SDS011;10546;50.674;4.616;2023-04-24T16:57:02;12.20;;;2.90;;
20772;SDS011;10546;50.674;4.616;2023-04-24T16:59:31;3.60;;;2.40;;
20772;SDS011;10546;50.674;4.616;2023-04-24T17:01:58;7.53;;;2.77;;
20772;SDS011;10546;50.674;4.616;2023-04-24T17:04:24;3.90;;;2.40;;
20772;SDS011;10546;50.674;4.616;2023-04-24T17:06:50;7.60;;;2.40;;
20772;SDS011;10546;50.674;4.616;2023-04-24T17:09:16;7.03;;;2.60;;
20772;SDS011;10546;50.674;4.616;2023-04-24T17:11:42;4.18;;;2.40;;
20772;SDS011;10546;50.674;4.616;2023-04-24T17:14:07;5.37;;;2.17;;
20772;SDS011;10546;50.674;4.616;2023-04-24T17:16:33;4.93;;;2.60;;
20772;SDS011;10546;50.674;4.616;2023-04-24T17:19:00;9.55;;;4.75;;
20772;SDS011;10546;50.674;4.616;2023-04-24T17:21:26;5.97;;;3.05;;
20772;SDS011;10546;50.674;4.616;2023-04-24T17:23:52;4.60;;;2.30;;
20772;SDS011;10546;50.674;4.616;2023-04-24T17:26:18;6.30;;;3.53;;
20772;SDS011;10546;50.674;4.616;2023-04-24T17:28:44;6.57;;;3.90;;
20772;SDS011;10546;50.674;4.616;2023-04-24T17:31:10;9.53;;;4.03;;
20772;SDS011;10546;50.674;4.616;2023-04-24T17:33:35;7.47;;;4.00;;
20772;SDS011;10546;50.674;4.616;2023-04-24T17:36:01;11.77;;;5.07;;
20772;SDS011;10546;50.674;4.616;2023-04-24T17:38:27;8.73;;;3.10;;
20772;SDS011;10546;50.674;4.616;2023-04-24T17:40:53;5.95;;;3.10;;
20772;SDS011;10546;50.674;4.616;2023-04-24T17:43:20;3.60;;;2.30;;
20772;SDS011;10546;50.674;4.616;2023-04-24T17:45:46;4.32;;;2.53;;
20772;SDS011;10546;50.674;4.616;2023-04-24T17:48:13;6.47;;;3.30;;
20772;SDS011;10546;50.674;4.616;2023-04-24T17:50:39;9.23;;;2.80;;